Time;durP1;ratioP1;P1;durP2;ratioP2;P2;SDS_P1;SDS_P2;PMS_P1;PMS_P2;Temp;Humidity;BMP_temperature;BMP_pressure;BME280_temperature;BME280_humidity;BME280_pressure;Samples;Min_cycle;Max_cycle;Signal;HPM_P1;HPM_P2
2021/11/22 00:00:59;;;;;;;1.52;0.70;;;23.20;66.50;;;;;;5068483;28;20124;-70
2021/11/22 00:04:05;;;;;;;2.65;0.40;;;23.20;66.40;;;;;;5070407;28;20025;-70
2021/11/22 00:07:12;;;;;;;3.25;0.70;;;23.10;66.40;;;;;;5066319;28;20033;-70
2021/11/22 00:10:18;;;;;;;2.33;0.70;;;23.10;66.50;;;;;;5070289;28;20035;-70
2021/11/22 00:13:24;;;;;;;3.47;1.48;;;23.20;66.50;;;;;;5069844;28;20078;-70
2021/11/22 00:16:30;;;;;;;3.83;1.45;;;23.10;66.50;;;;;;5068654;28;20472;-70
2021/11/22 00:18:57;;;;;;;5.20;2.40;;;23.10;66.80;;;;;;5070635;28;20498;-70
2021/11/22 00:21:24;;;;;;;4.40;1.90;;;23.20;67.20;;;;;;5071630;28;20063;-70
2021/11/22 00:23:51;;;;;;;7.97;2.30;;;23.10;67.40;;;;;;5070398;28;20016;-70
2021/11/22 00:26:18;;;;;;;7.68;1.75;;;23.10;67.50;;;;;;5072178;28;20352;-70
2021/11/22 00:28:44;;;;;;;6.82;2.13;;;23.10;67.60;;;;;;5070731;28;20096;-69
2021/11/22 00:31:11;;;;;;;7.32;2.13;;;23.10;67.60;;;;;;5072201;28;20047;-70
2021/11/22 00:33:37;;;;;;;7.20;1.88;;;23.10;67.60;;;;;;5066495;28;20017;-70
2021/11/22 00:36:05;;;;;;;9.18;2.10;;;23.10;67.80;;;;;;5070503;28;20020;-70
2021/11/22 00:38:31;;;;;;;5.03;1.42;;;23.10;67.90;;;;;;5071395;28;20048;-70
2021/11/22 00:40:58;;;;;;;4.55;1.77;;;23.10;67.90;;;;;;5069779;28;20023;-70
2021/11/22 00:43:24;;;;;;;5.65;2.78;;;23.10;67.90;;;;;;5070958;28;20045;-69
2021/11/22 00:45:52;;;;;;;2.83;1.25;;;23.00;67.90;;;;;;5069815;28;20024;-70
2021/11/22 00:48:20;;;;;;;2.40;0.82;;;23.00;67.90;;;;;;5071182;28;20021;-69
2021/11/22 00:50:48;;;;;;;2.97;1.58;;;23.00;67.90;;;;;;5070364;28;20024;-68
2021/11/22 00:53:15;;;;;;;3.10;0.70;;;23.00;67.90;;;;;;5070873;28;20023;-69
2021/11/22 00:55:42;;;;;;;0.85;0.63;;;23.00;67.80;;;;;;5070934;28;20383;-70
2021/11/22 00:58:08;;;;;;;2.70;0.80;;;23.00;67.90;;;;;;5069487;28;20044;-69
2021/11/22 01:00:36;;;;;;;2.53;1.17;;;23.00;67.90;;;;;;5070438;28;20021;-69
2021/11/22 01:03:03;;;;;;;1.73;0.68;;;23.00;68.00;;;;;;5069181;28;20029;-70
2021/11/22 01:05:30;;;;;;;2.63;0.70;;;23.00;67.90;;;;;;5070342;28;20029;-69
2021/11/22 01:07:57;;;;;;;2.20;0.73;;;23.00;67.90;;;;;;5070002;28;20021;-69
2021/11/22 01:10:24;;;;;;;2.42;0.63;;;23.00;67.90;;;;;;5070204;28;20024;-70
2021/11/22 01:12:51;;;;;;;2.40;0.75;;;23.00;67.80;;;;;;5071471;28;20016;-69
2021/11/22 01:15:21;;;;;;;2.50;0.68;;;23.00;67.80;;;;;;5069748;28;20130;-69
2021/11/22 01:17:51;;;;;;;6.03;0.90;;;23.00;67.80;;;;;;5070521;28;20112;-69
2021/11/22 01:20:21;;;;;;;3.88;1.02;;;23.00;67.70;;;;;;5070006;28;20380;-70
2021/11/22 01:22:47;;;;;;;5.13;1.48;;;22.90;67.60;;;;;;5070988;28;20017;-69
2021/11/22 01:25:15;;;;;;;5.45;1.27;;;22.90;67.70;;;;;;5069002;28;20048;-69
2021/11/22 01:27:41;;;;;;;8.43;2.38;;;22.90;67.70;;;;;;5069989;28;20040;-70
2021/11/22 01:30:11;;;;;;;6.15;2.50;;;22.90;67.90;;;;;;5070253;28;20016;-70
2021/11/22 01:32:40;;;;;;;9.88;1.67;;;22.90;67.90;;;;;;5069505;28;20020;-70
2021/11/22 01:35:06;;;;;;;2.60;1.60;;;22.90;68.00;;;;;;5070396;28;20078;-70
2021/11/22 01:37:33;;;;;;;6.32;1.90;;;22.90;68.10;;;;;;5069220;28;20058;-70
2021/11/22 01:40:00;;;;;;;13.32;2.90;;;22.90;68.20;;;;;;5070259;28;20468;-70
2021/11/22 01:42:26;;;;;;;11.48;2.45;;;22.90;68.20;;;;;;5069101;28;20021;-70
2021/11/22 01:44:53;;;;;;;7.65;2.28;;;22.90;68.40;;;;;;5070198;28;20052;-70
2021/11/22 01:47:19;;;;;;;7.05;2.08;;;22.90;68.60;;;;;;5070627;28;20017;-70
2021/11/22 01:49:46;;;;;;;10.43;2.88;;;22.90;68.80;;;;;;5069197;28;20025;-70
2021/11/22 01:52:12;;;;;;;8.27;3.80;;;22.90;68.80;;;;;;5068068;28;20111;-69
2021/11/22 01:54:39;;;;;;;11.32;2.63;;;22.80;68.70;;;;;;5069188;28;20048;-69
2021/11/22 01:57:06;;;;;;;5.72;1.65;;;22.80;68.70;;;;;;5069833;28;20361;-69
2021/11/22 01:59:32;;;;;;;7.97;2.05;;;22.80;68.70;;;;;;5068568;28;20021;-69
2021/11/22 02:02:02;;;;;;;4.65;1.85;;;22.80;68.80;;;;;;5069578;28;20416;-69
2021/11/22 02:04:28;;;;;;;6.18;2.10;;;22.80;68.80;;;;;;5069786;28;20025;-69
2021/11/22 02:06:55;;;;;;;7.80;2.38;;;22.80;68.90;;;;;;5068967;28;20020;-69
2021/11/22 02:09:21;;;;;;;7.93;2.55;;;22.80;69.00;;;;;;5069487;28;20048;-69
2021/11/22 02:11:48;;;;;;;6.25;1.80;;;22.70;68.90;;;;;;5068142;28;20032;-70
2021/11/22 02:14:15;;;;;;;10.80;2.00;;;22.70;69.00;;;;;;5069387;28;20024;-70
2021/11/22 02:16:41;;;;;;;5.15;1.45;;;22.70;69.10;;;;;;5068412;28;20020;-69
2021/11/22 02:19:08;;;;;;;3.58;1.20;;;22.70;68.90;;;;;;5069851;28;20060;-70
2021/11/22 02:21:35;;;;;;;5.53;1.98;;;22.70;68.90;;;;;;5068812;28;20480;-70
2021/11/22 02:24:01;;;;;;;7.22;1.45;;;22.70;68.90;;;;;;5068895;28;20471;-70
2021/11/22 02:26:30;;;;;;;9.82;1.75;;;22.70;68.80;;;;;;5069782;28;20025;-70
2021/11/22 02:28:56;;;;;;;6.07;1.90;;;22.70;68.70;;;;;;5068335;28;20060;-69
2021/11/22 02:31:23;;;;;;;8.20;2.38;;;22.70;68.90;;;;;;5069322;28;20024;-70
2021/11/22 02:33:56;;;;;;;6.85;1.60;;;22.70;68.90;;;;;;5068259;28;20017;-70
2021/11/22 02:36:23;;;;;;;5.72;2.00;;;22.70;68.90;;;;;;5066160;28;20133;-70
2021/11/22 02:38:50;;;;;;;9.70;2.28;;;22.70;69.10;;;;;;5065540;28;20993;-70
2021/11/22 02:41:18;;;;;;;7.82;2.10;;;22.70;69.20;;;;;;5068999;28;20044;-70
2021/11/22 02:43:46;;;;;;;9.30;2.58;;;22.60;69.20;;;;;;5065683;28;20020;-69
2021/11/22 02:46:14;;;;;;;8.00;2.63;;;22.60;69.30;;;;;;5068536;28;20027;-69
2021/11/22 02:48:41;;;;;;;5.68;2.05;;;22.70;69.30;;;;;;5069187;28;20021;-69
2021/11/22 02:51:07;;;;;;;10.55;2.90;;;22.60;69.20;;;;;;5068347;28;20073;-69
2021/11/22 02:53:34;;;;;;;8.13;2.42;;;22.60;69.30;;;;;;5069181;28;20521;-70
2021/11/22 02:56:06;;;;;;;7.55;3.25;;;22.60;69.30;;;;;;5068146;28;20016;-70
2021/11/22 02:58:35;;;;;;;10.30;2.50;;;22.60;69.40;;;;;;5069307;28;20025;-70
2021/11/22 03:01:03;;;;;;;9.70;2.65;;;22.60;69.50;;;;;;5068839;28;20100;-69
2021/11/22 03:03:31;;;;;;;13.07;3.30;;;22.60;69.60;;;;;;5068572;28;20122;-70
2021/11/22 03:06:09;;;;;;;10.98;2.70;;;22.60;69.70;;;;;;5068974;28;20491;-70
2021/11/22 03:08:37;;;;;;;9.50;4.07;;;22.50;70.40;;;;;;5067856;28;20024;-69
2021/11/22 03:11:05;;;;;;;12.13;3.40;;;22.50;69.80;;;;;;5068549;28;20451;-69
2021/11/22 03:13:32;;;;;;;15.93;4.32;;;22.50;69.90;;;;;;5068326;28;20021;-70
2021/11/22 03:15:59;;;;;;;17.42;4.15;;;22.50;70.00;;;;;;5067181;28;20017;-70
2021/11/22 03:18:26;;;;;;;14.63;3.42;;;22.50;70.00;;;;;;5068790;28;20036;-70
2021/11/22 03:20:53;;;;;;;15.25;5.20;;;22.50;70.10;;;;;;5067821;28;20021;-70
2021/11/22 03:23:20;;;;;;;11.60;3.97;;;22.50;70.20;;;;;;5071189;28;20373;-69
2021/11/22 03:25:47;;;;;;;12.80;2.80;;;22.50;70.20;;;;;;5071907;28;20020;-69
2021/11/22 03:28:16;;;;;;;14.60;3.03;;;22.50;70.20;;;;;;5072965;28;20182;-69
2021/11/22 03:30:43;;;;;;;10.95;3.17;;;22.50;70.20;;;;;;5072659;28;20024;-70
2021/11/22 03:33:10;;;;;;;14.52;3.22;;;22.50;70.30;;;;;;5072039;28;20021;-70
2021/11/22 03:35:36;;;;;;;9.02;2.78;;;22.40;70.20;;;;;;5072509;28;20778;-69
2021/11/22 03:38:04;;;;;;;14.45;3.40;;;22.40;70.30;;;;;;5071991;28;20028;-70
2021/11/22 03:40:30;;;;;;;16.88;7.68;;;22.40;70.30;;;;;;5072578;28;20024;-70
2021/11/22 03:43:17;;;;;;;27.17;14.27;;;22.40;70.40;;;;;;5071326;28;20019;-70
2021/11/22 03:45:48;;;;;;;22.98;10.60;;;22.40;70.60;;;;;;5072227;28;20035;-70
2021/11/22 03:48:15;;;;;;;11.82;6.63;;;22.40;70.60;;;;;;5071834;28;20089;-70
2021/11/22 03:50:42;;;;;;;12.52;5.47;;;22.40;70.80;;;;;;5071941;28;20013;-70
2021/11/22 03:53:09;;;;;;;13.85;4.25;;;22.40;70.70;;;;;;5072302;28;20013;-69
2021/11/22 03:55:35;;;;;;;12.52;4.10;;;22.40;70.70;;;;;;5071632;28;20127;-70
2021/11/22 03:58:02;;;;;;;12.77;4.07;;;22.40;70.70;;;;;;5072167;28;20563;-71
2021/11/22 04:01:08;;;;;;;12.55;3.72;;;22.40;70.60;;;;;;5070592;28;20049;-70
2021/11/22 04:04:14;;;;;;;9.38;3.20;;;22.40;70.60;;;;;;5071805;28;20031;-70
2021/11/22 04:07:20;;;;;;;9.40;2.85;;;22.40;70.60;;;;;;5070502;28;20139;-69
2021/11/22 04:09:47;;;;;;;;;;;22.30;70.90;;;;;;5068588;28;20020;-72
2021/11/22 04:12:13;;;;;;;9.40;3.00;;;22.30;71.00;;;;;;5104796;28;19915;-70
2021/11/22 04:14:40;;;;;;;13.05;5.10;;;22.30;71.00;;;;;;5070483;28;20044;-69
2021/11/22 04:17:06;;;;;;;15.63;7.38;;;22.30;70.90;;;;;;5070958;28;20095;-71
2021/11/22 04:19:33;;;;;;;14.95;8.57;;;22.40;71.00;;;;;;5070078;28;20054;-72
2021/11/22 04:22:00;;;;;;;16.73;8.13;;;22.30;70.90;;;;;;5070448;28;20008;-71
2021/11/22 04:24:26;;;;;;;18.60;7.07;;;22.30;70.90;;;;;;5053869;28;20033;-71
2021/11/22 04:26:53;;;;;;;12.95;5.88;;;22.40;70.90;;;;;;5070729;28;20080;-70
2021/11/22 04:29:20;;;;;;;8.82;3.58;;;22.40;70.90;;;;;;5062145;28;20033;-72
2021/11/22 04:31:46;;;;;;;9.93;3.50;;;22.30;70.70;;;;;;5069173;28;20021;-72
2021/11/22 04:34:13;;;;;;;12.30;3.55;;;22.30;70.60;;;;;;5068811;28;20021;-72
2021/11/22 04:36:41;;;;;;;13.27;3.22;;;22.40;70.70;;;;;;5069052;28;20147;-72
2021/11/22 04:39:08;;;;;;;9.90;3.15;;;22.40;70.80;;;;;;5069776;28;20036;-72
2021/11/22 04:41:35;;;;;;;9.65;3.17;;;22.40;70.70;;;;;;5070229;28;20024;-73
2021/11/22 04:44:02;;;;;;;10.13;4.13;;;22.40;70.70;;;;;;5071681;28;20010;-70
2021/11/22 04:46:32;;;;;;;11.27;4.20;;;22.30;70.60;;;;;;5070852;28;20017;-70
2021/11/22 04:48:59;;;;;;;8.10;3.40;;;22.40;70.60;;;;;;5070634;28;20108;-70
2021/11/22 04:51:27;;;;;;;13.40;4.65;;;22.40;70.50;;;;;;5071010;28;20025;-70
2021/11/22 04:53:53;;;;;;;11.10;3.33;;;22.40;70.50;;;;;;5070132;28;20021;-70
2021/11/22 04:56:20;;;;;;;10.77;3.53;;;22.40;70.50;;;;;;5071163;28;20468;-71
2021/11/22 04:58:46;;;;;;;18.38;3.60;;;22.40;70.60;;;;;;5069764;28;20036;-69
2021/11/22 05:01:13;;;;;;;11.82;2.90;;;22.40;70.70;;;;;;5070326;28;20017;-70
2021/11/22 05:03:40;;;;;;;8.73;3.55;;;22.40;70.70;;;;;;5070563;28;20056;-70
2021/11/22 05:06:06;;;;;;;10.20;2.85;;;22.40;70.70;;;;;;5070651;28;20063;-70
2021/11/22 05:08:33;;;;;;;7.50;3.13;;;22.40;70.80;;;;;;5070789;28;20031;-70
2021/11/22 05:10:59;;;;;;;7.85;3.33;;;22.40;70.70;;;;;;5070169;28;20023;-70
2021/11/22 05:13:26;;;;;;;8.75;2.75;;;22.40;70.70;;;;;;5071398;28;20009;-70
2021/11/22 05:15:52;;;;;;;8.15;2.22;;;22.40;70.70;;;;;;5069847;28;20059;-69
2021/11/22 05:18:19;;;;;;;8.73;2.60;;;22.40;70.60;;;;;;5070621;28;20036;-70
2021/11/22 05:20:45;;;;;;;5.80;1.83;;;22.50;70.60;;;;;;5069382;28;20024;-71
2021/11/22 05:23:13;;;;;;;8.93;2.15;;;22.50;70.60;;;;;;5068129;28;20024;-70
2021/11/22 05:25:39;;;;;;;7.10;2.42;;;22.50;70.40;;;;;;5070454;28;20058;-71
2021/11/22 05:28:06;;;;;;;4.35;1.60;;;22.50;70.30;;;;;;5070221;28;20040;-70
2021/11/22 05:30:33;;;;;;;10.73;2.72;;;22.50;70.20;;;;;;5070397;28;20025;-69
2021/11/22 05:33:02;;;;;;;6.05;2.40;;;22.60;70.10;;;;;;5069573;28;20048;-70
2021/11/22 05:35:29;;;;;;;10.93;2.10;;;22.60;70.10;;;;;;5070431;28;20028;-70
2021/11/22 05:37:56;;;;;;;11.27;2.92;;;22.60;70.00;;;;;;5069018;28;20029;-71
2021/11/22 05:40:23;;;;;;;8.18;2.15;;;22.60;69.90;;;;;;5070302;28;20027;-71
2021/11/22 05:42:51;;;;;;;5.07;2.05;;;22.70;70.00;;;;;;5069686;28;20020;-70
2021/11/22 05:45:19;;;;;;;6.28;1.88;;;22.70;69.90;;;;;;5066351;28;20025;-71
2021/11/22 05:47:46;;;;;;;10.18;3.08;;;22.70;69.90;;;;;;5070571;28;20021;-70
2021/11/22 05:50:12;;;;;;;12.88;2.42;;;22.70;69.90;;;;;;5065912;28;20070;-69
2021/11/22 05:52:41;;;;;;;11.68;3.00;;;22.80;69.80;;;;;;5070167;28;20486;-69
2021/11/22 05:55:14;;;;;;;6.75;2.40;;;22.80;69.80;;;;;;5068851;28;20125;-70
2021/11/22 05:57:40;;;;;;;9.50;2.22;;;22.80;69.80;;;;;;5070062;28;20398;-69
2021/11/22 06:00:09;;;;;;;6.70;1.80;;;22.90;69.60;;;;;;5068517;28;20035;-69
2021/11/22 06:02:35;;;;;;;5.40;2.38;;;22.90;69.40;;;;;;5069708;28;20009;-69
2021/11/22 06:05:02;;;;;;;9.70;1.52;;;22.90;69.10;;;;;;5069719;28;20036;-70
2021/11/22 06:07:28;;;;;;;6.32;1.98;;;22.90;68.90;;;;;;5068631;28;20000;-69
2021/11/22 06:09:57;;;;;;;6.28;1.80;;;22.90;68.80;;;;;;5068063;28;20398;-70
2021/11/22 06:12:24;;;;;;;5.45;1.80;;;22.90;68.70;;;;;;5067714;28;20028;-70
2021/11/22 06:14:52;;;;;;;8.98;2.47;;;23.00;68.70;;;;;;5069060;28;20017;-71
2021/11/22 06:17:19;;;;;;;6.00;2.03;;;23.00;68.70;;;;;;5067702;28;20028;-69
2021/11/22 06:19:46;;;;;;;10.30;2.50;;;23.10;68.90;;;;;;5068465;28;20025;-70
2021/11/22 06:22:12;;;;;;;8.60;2.60;;;23.10;68.90;;;;;;5066565;28;20555;-69
2021/11/22 06:24:39;;;;;;;9.32;2.95;;;23.10;68.90;;;;;;5065593;28;20017;-69
2021/11/22 06:27:05;;;;;;;17.00;2.88;;;23.10;68.90;;;;;;5066624;28;20068;-69
2021/11/22 06:29:32;;;;;;;8.88;2.25;;;23.10;68.90;;;;;;5065787;28;20032;-71
2021/11/22 06:31:58;;;;;;;8.70;2.08;;;23.20;68.90;;;;;;5066299;28;20025;-70
2021/11/22 06:34:25;;;;;;;9.75;2.80;;;23.20;68.90;;;;;;5065430;28;20024;-71
2021/11/22 06:36:51;;;;;;;10.15;2.47;;;23.20;68.80;;;;;;5066379;28;20112;-69
2021/11/22 06:39:18;;;;;;;12.85;2.83;;;23.20;68.80;;;;;;5066128;28;20040;-69
2021/11/22 06:41:44;;;;;;;14.00;3.22;;;23.30;68.70;;;;;;5065950;28;20066;-70
2021/11/22 06:44:11;;;;;;;14.27;3.78;;;23.30;68.60;;;;;;5066854;28;20024;-70
2021/11/22 06:46:38;;;;;;;13.30;3.05;;;23.30;68.40;;;;;;5064984;28;20025;-70
2021/11/22 06:49:04;;;;;;;11.85;2.78;;;23.30;68.30;;;;;;5066340;28;20454;-69
2021/11/22 06:51:31;;;;;;;10.82;3.47;;;23.40;68.30;;;;;;5065458;28;20040;-70
2021/11/22 06:53:57;;;;;;;8.13;2.38;;;23.40;68.10;;;;;;5067300;28;20025;-70
2021/11/22 06:56:24;;;;;;;8.65;1.55;;;23.40;67.90;;;;;;5064168;28;20621;-70
2021/11/22 06:58:50;;;;;;;6.20;2.00;;;23.40;67.60;;;;;;5070627;28;20024;-70
2021/11/22 07:01:17;;;;;;;7.57;1.52;;;23.40;67.30;;;;;;5071416;28;20112;-70
2021/11/22 07:03:45;;;;;;;9.73;1.60;;;23.40;67.10;;;;;;5070622;28;20441;-69
2021/11/22 07:06:11;;;;;;;5.30;1.80;;;23.50;67.10;;;;;;5070429;28;20021;-70
2021/11/22 07:08:38;;;;;;;7.65;1.70;;;23.50;67.00;;;;;;5067905;28;20040;-69
2021/11/22 07:11:05;;;;;;;4.30;1.60;;;23.50;66.90;;;;;;5069923;28;20668;-69
2021/11/22 07:13:33;;;;;;;5.20;1.08;;;23.50;66.80;;;;;;5068693;28;20059;-69
2021/11/22 07:16:00;;;;;;;4.60;0.80;;;23.60;66.80;;;;;;5069065;28;20097;-69
2021/11/22 07:18:27;;;;;;;4.10;1.05;;;23.60;66.70;;;;;;5069083;28;20040;-69
2021/11/22 07:20:54;;;;;;;7.13;1.20;;;23.60;66.50;;;;;;5068433;28;20017;-69
2021/11/22 07:23:25;;;;;;;9.20;1.63;;;23.70;66.40;;;;;;5051710;28;20058;-70
2021/11/22 07:25:55;;;;;;;6.43;1.48;;;23.70;66.30;;;;;;5067836;28;20483;-70
2021/11/22 07:28:25;;;;;;;6.25;2.10;;;23.70;66.30;;;;;;5069128;28;20450;-69
2021/11/22 07:30:51;;;;;;;4.10;1.20;;;23.80;66.30;;;;;;5066828;28;20043;-69
2021/11/22 07:33:19;;;;;;;7.20;2.17;;;23.80;66.30;;;;;;5068546;28;20029;-69
2021/11/22 07:35:46;;;;;;;3.20;0.98;;;23.80;66.20;;;;;;5068066;28;20103;-69
2021/11/22 07:38:13;;;;;;;5.30;0.90;;;23.80;66.10;;;;;;5066747;28;20027;-69
2021/11/22 07:40:40;;;;;;;2.92;0.90;;;23.90;66.00;;;;;;5069085;28;20047;-69
2021/11/22 07:43:09;;;;;;;4.15;0.75;;;23.90;65.90;;;;;;5068149;28;20030;-69
2021/11/22 07:45:36;;;;;;;6.40;1.17;;;24.00;65.80;;;;;;5069402;28;20467;-68
2021/11/22 07:48:04;;;;;;;5.55;0.98;;;24.00;65.70;;;;;;5067997;28;20016;-69
2021/11/22 07:50:31;;;;;;;4.22;0.90;;;24.00;65.70;;;;;;5069481;28;20024;-68
2021/11/22 07:52:58;;;;;;;6.03;3.00;;;24.00;65.50;;;;;;5068846;28;20048;-70
2021/11/22 07:55:25;;;;;;;6.07;1.10;;;24.10;65.40;;;;;;5069370;28;20013;-70
2021/11/22 07:57:54;;;;;;;5.10;1.63;;;24.10;65.20;;;;;;5069345;28;20024;-67
2021/11/22 08:00:22;;;;;;;5.18;1.10;;;24.10;65.00;;;;;;5066838;28;20031;-68
2021/11/22 08:02:49;;;;;;;3.78;1.25;;;24.20;65.00;;;;;;5069472;28;20116;-70
2021/11/22 08:05:16;;;;;;;2.55;1.45;;;24.20;65.10;;;;;;5068243;28;20107;-69
2021/11/22 08:07:43;;;;;;;2.90;1.23;;;24.30;64.90;;;;;;5069775;28;20021;-69
2021/11/22 08:12:56;;;;;;;2.78;0.82;;;24.30;64.50;;;;;;5067178;28;20091;-68
2021/11/22 08:15:24;;;;;;;5.82;1.60;;;24.30;64.30;;;;;;5067924;28;20025;-70
2021/11/22 08:17:51;;;;;;;8.45;1.60;;;24.40;64.00;;;;;;5067374;28;20025;-68
2021/11/22 08:20:20;;;;;;;7.95;2.45;;;24.40;64.10;;;;;;5068134;28;20024;-69
2021/11/22 08:22:48;;;;;;;6.93;2.03;;;24.50;64.10;;;;;;5067592;28;20017;-69
2021/11/22 08:25:16;;;;;;;4.10;1.83;;;24.50;63.80;;;;;;5068384;28;20027;-69
2021/11/22 08:27:43;;;;;;;5.82;1.25;;;24.60;63.70;;;;;;5068259;28;20044;-69
2021/11/22 08:30:13;;;;;;;3.38;1.52;;;24.60;63.60;;;;;;5067860;28;20019;-69
2021/11/22 08:32:41;;;;;;;4.93;1.75;;;24.70;63.50;;;;;;5069363;28;20463;-70
2021/11/22 08:35:09;;;;;;;4.55;1.45;;;24.70;63.30;;;;;;5068679;28;20013;-69
2021/11/22 08:37:37;;;;;;;7.78;1.83;;;24.80;63.20;;;;;;5069701;28;20031;-71
2021/11/22 08:40:05;;;;;;;8.30;1.52;;;24.80;63.20;;;;;;5069045;28;20034;-69
2021/11/22 08:42:32;;;;;;;5.60;1.73;;;24.80;63.20;;;;;;5070956;28;20422;-68
2021/11/22 08:45:00;;;;;;;8.43;2.42;;;24.90;63.00;;;;;;5070969;28;20012;-70
2021/11/22 08:47:28;;;;;;;7.40;2.60;;;25.00;63.00;;;;;;5070759;28;20012;-68
2021/11/22 08:49:54;;;;;;;5.20;1.45;;;25.00;62.80;;;;;;5071502;28;20012;-69
2021/11/22 08:52:22;;;;;;;8.15;1.98;;;25.00;62.70;;;;;;5070382;28;20013;-69
2021/11/22 08:54:49;;;;;;;4.30;1.65;;;25.10;62.40;;;;;;5070161;28;20032;-68
2021/11/22 08:57:16;;;;;;;8.10;1.67;;;25.10;62.30;;;;;;5067702;28;20393;-70
2021/11/22 08:59:43;;;;;;;8.02;2.22;;;25.20;62.30;;;;;;5069379;28;20032;-68
2021/11/22 09:02:11;;;;;;;6.97;1.95;;;25.20;62.20;;;;;;5069258;28;20028;-70
2021/11/22 09:04:38;;;;;;;11.23;2.17;;;25.20;61.90;;;;;;5068249;28;20023;-70
2021/11/22 09:07:04;;;;;;;7.57;2.05;;;25.30;61.70;;;;;;5070615;28;20059;-70
2021/11/22 09:09:31;;;;;;;8.45;2.03;;;25.30;61.70;;;;;;5069041;28;20033;-69
2021/11/22 09:11:57;;;;;;;8.95;2.28;;;25.30;61.60;;;;;;5071142;28;20462;-68
2021/11/22 09:14:24;;;;;;;6.55;2.10;;;25.30;61.60;;;;;;5069696;28;20395;-69
2021/11/22 09:16:51;;;;;;;5.15;1.55;;;25.40;61.60;;;;;;5071145;28;20077;-70
2021/11/22 09:19:17;;;;;;;8.15;2.72;;;25.40;61.30;;;;;;5069717;28;20032;-69
2021/11/22 09:21:44;;;;;;;6.00;1.80;;;25.40;61.30;;;;;;5069628;28;20016;-68
2021/11/22 09:24:11;;;;;;;11.85;2.45;;;25.40;60.90;;;;;;5069902;28;20074;-68
2021/11/22 09:26:37;;;;;;;8.52;2.50;;;25.50;60.90;;;;;;5068976;28;20043;-69
2021/11/22 09:29:05;;;;;;;9.45;1.98;;;25.50;60.80;;;;;;5069119;28;20029;-68
2021/11/22 09:31:32;;;;;;;5.28;1.48;;;25.50;60.70;;;;;;5066869;28;20023;-68
2021/11/22 09:33:58;;;;;;;8.15;2.33;;;25.50;60.50;;;;;;5069092;28;20436;-69
2021/11/22 09:36:26;;;;;;;7.75;2.10;;;25.50;60.40;;;;;;5069143;28;20031;-68
2021/11/22 09:38:53;;;;;;;7.85;1.58;;;25.60;60.40;;;;;;5070101;28;20032;-70
2021/11/22 09:41:23;;;;;;;8.90;2.50;;;25.60;60.30;;;;;;5066124;28;20027;-69
2021/11/22 09:43:49;;;;;;;8.50;2.63;;;25.60;60.20;;;;;;5069536;28;20628;-68
2021/11/22 09:46:16;;;;;;;11.55;2.72;;;25.70;60.10;;;;;;5070180;28;20020;-69
2021/11/22 09:48:43;;;;;;;6.53;1.83;;;25.70;60.20;;;;;;5069117;28;20107;-69
2021/11/22 09:51:10;;;;;;;7.05;2.08;;;25.80;60.10;;;;;;5070053;28;20145;-69
2021/11/22 09:53:41;;;;;;;6.18;1.88;;;25.80;59.80;;;;;;5068746;28;20074;-69
2021/11/22 09:56:09;;;;;;;7.05;1.75;;;25.80;59.60;;;;;;5069345;28;20075;-70
2021/11/22 09:58:36;;;;;;;8.60;2.35;;;25.80;59.50;;;;;;5066429;28;20491;-69
2021/11/22 10:01:09;;;;;;;5.75;2.28;;;25.90;59.50;;;;;;5065836;28;20039;-69
2021/11/22 10:03:35;;;;;;;6.13;1.40;;;25.90;59.40;;;;;;5066600;28;20021;-69
2021/11/22 10:06:04;;;;;;;7.72;2.92;;;25.90;59.20;;;;;;5066024;28;20022;-68
2021/11/22 10:08:39;;;;;;;5.97;1.80;;;26.00;59.20;;;;;;5067658;28;20028;-69
2021/11/22 10:11:08;;;;;;;4.97;1.45;;;26.00;59.00;;;;;;5066944;28;20526;-69
2021/11/22 10:13:42;;;;;;;8.60;1.77;;;26.00;59.00;;;;;;5068424;28;20115;-69
2021/11/22 10:16:12;;;;;;;12.30;2.53;;;26.00;58.90;;;;;;5067795;28;20021;-69
2021/11/22 10:19:00;;;;;;;6.18;1.88;;;26.10;58.90;;;;;;5064007;28;20033;-69
2021/11/22 10:21:29;;;;;;;7.25;2.08;;;26.10;58.60;;;;;;5067775;28;20020;-70
2021/11/22 10:24:03;;;;;;;8.82;2.17;;;26.10;58.40;;;;;;5066533;28;20024;-70
2021/11/22 10:26:41;;;;;;;9.07;1.60;;;26.20;58.40;;;;;;5068757;28;20020;-69
2021/11/22 10:29:09;;;;;;;3.97;1.67;;;26.20;58.50;;;;;;5069244;28;20043;-69
2021/11/22 10:31:37;;;;;;;9.65;2.50;;;26.30;58.30;;;;;;5068294;28;20418;-68
2021/11/22 10:34:04;;;;;;;5.15;1.67;;;26.30;57.80;;;;;;5070068;28;20590;-69
2021/11/22 10:36:37;;;;;;;9.07;2.25;;;26.30;57.60;;;;;;5068588;28;20020;-71
2021/11/22 10:39:05;;;;;;;4.80;1.67;;;26.30;57.70;;;;;;5069287;28;20060;-68
2021/11/22 10:41:39;;;;;;;3.83;1.70;;;26.40;57.70;;;;;;5063542;28;20024;-69
2021/11/22 10:44:09;;;;;;;7.45;2.33;;;26.40;57.50;;;;;;5069322;28;20025;-68
2021/11/22 10:46:44;;;;;;;4.65;2.15;;;26.40;57.40;;;;;;5069702;28;20038;-68
2021/11/22 10:49:17;;;;;;;7.63;2.33;;;26.40;57.30;;;;;;5067962;28;20463;-69
2021/11/22 10:51:48;;;;;;;7.75;2.42;;;26.50;57.40;;;;;;5066999;28;20452;-69
2021/11/22 10:54:19;;;;;;;8.15;1.88;;;26.60;57.40;;;;;;5067806;28;20107;-68
2021/11/22 10:56:50;;;;;;;12.57;1.73;;;26.60;57.20;;;;;;5069091;28;20120;-68
2021/11/22 10:59:23;;;;;;;5.28;1.48;;;26.60;57.00;;;;;;5068121;28;20027;-69
2021/11/22 11:01:55;;;;;;;3.88;1.35;;;26.60;56.80;;;;;;5068631;28;20048;-68
2021/11/22 11:04:22;;;;;;;7.07;2.10;;;26.70;57.00;;;;;;5062857;28;20025;-69
2021/11/22 11:06:52;;;;;;;6.07;1.50;;;26.70;57.00;;;;;;5065233;28;20052;-69
2021/11/22 11:09:32;;;;;;;7.50;2.20;;;26.70;56.90;;;;;;5069075;28;20066;-68
2021/11/22 11:12:14;;;;;;;5.65;1.52;;;26.80;56.80;;;;;;5067375;28;20048;-69
2021/11/22 11:14:49;;;;;;;5.43;1.75;;;26.80;56.70;;;;;;5068387;28;20093;-69
2021/11/22 11:17:40;;;;;;;5.55;1.80;;;26.90;56.50;;;;;;5067655;28;20112;-68
2021/11/22 11:20:10;;;;;;;4.63;1.85;;;26.90;56.20;;;;;;5067699;28;20067;-69
2021/11/22 11:22:37;;;;;;;5.15;1.60;;;27.00;56.20;;;;;;5069201;28;20023;-68
2021/11/22 11:25:07;;;;;;;5.32;1.67;;;27.00;56.20;;;;;;5068507;28;20504;-68
2021/11/22 11:27:41;;;;;;;3.40;1.55;;;27.00;56.20;;;;;;5068062;28;20087;-69
2021/11/22 11:30:15;;;;;;;7.72;2.08;;;27.00;56.10;;;;;;5068387;28;20503;-68
2021/11/22 11:32:42;;;;;;;;;;;27.10;56.10;;;;;;5068746;28;20610;-69
2021/11/22 11:35:18;;;;;;;6.25;1.95;;;27.20;55.90;;;;;;5068905;28;20249;-69
2021/11/22 11:37:50;;;;;;;9.65;2.33;;;27.20;55.90;;;;;;5065802;28;20025;-69
2021/11/22 11:40:53;;;;;;;4.13;1.33;;;27.20;55.70;;;;;;5068210;28;20027;-70
2021/11/22 11:43:40;;;;;;;4.68;1.60;;;27.30;55.80;;;;;;5067978;28;20036;-68
2021/11/22 11:46:20;;;;;;;4.95;1.38;;;27.30;55.60;;;;;;5071381;28;20749;-69
2021/11/22 11:49:05;;;;;;;6.05;1.58;;;27.30;55.40;;;;;;5072591;28;20036;-69
2021/11/22 11:51:38;;;;;;;2.38;1.10;;;27.30;56.00;;;;;;5072588;28;20940;-69
2021/11/22 11:54:20;;;;;;;6.90;1.83;;;27.30;55.30;;;;;;5071179;28;20119;-68
2021/11/22 11:56:51;;;;;;;5.28;0.98;;;27.30;55.20;;;;;;5072169;28;20437;-69
2021/11/22 11:59:38;;;;;;;4.25;0.95;;;27.40;55.10;;;;;;5071146;28;20090;-68
2021/11/22 12:02:25;;;;;;;3.72;1.27;;;27.40;55.00;;;;;;5071438;28;20043;-70
2021/11/22 12:04:57;;;;;;;6.03;1.88;;;27.30;54.80;;;;;;5072631;28;20166;-71
2021/11/22 12:07:28;;;;;;;8.68;1.80;;;27.40;54.80;;;;;;5070889;28;20471;-70
2021/11/22 12:10:23;;;;;;;12.70;1.80;;;27.40;54.60;;;;;;5071983;28;20029;-71
2021/11/22 12:13:05;;;;;;;4.30;1.40;;;27.40;54.50;;;;;;5070573;28;20119;-69
2021/11/22 12:15:38;;;;;;;3.58;1.40;;;27.50;54.50;;;;;;5071354;28;20490;-69
2021/11/22 12:18:25;;;;;;;4.43;1.25;;;27.50;54.40;;;;;;5071894;28;20380;-71
2021/11/22 12:21:04;;;;;;;4.35;1.15;;;27.50;54.20;;;;;;5068264;28;20017;-69
2021/11/22 12:23:46;;;;;;;5.22;1.45;;;27.50;54.00;;;;;;5071615;28;20506;-69
2021/11/22 12:26:15;;;;;;;6.72;1.70;;;27.50;54.00;;;;;;5070040;28;20032;-69
2021/11/22 12:28:43;;;;;;;5.28;1.38;;;27.50;54.00;;;;;;5070858;28;20040;-70
2021/11/22 12:31:26;;;;;;;6.45;1.90;;;27.50;53.90;;;;;;5071418;28;20027;-68
2021/11/22 12:33:55;;;;;;;4.15;1.27;;;27.50;53.80;;;;;;5070609;28;20044;-69
2021/11/22 12:36:24;;;;;;;11.75;1.75;;;27.50;53.70;;;;;;5067144;28;20056;-69
2021/11/22 12:39:30;;;;;;;2.67;1.30;;;27.50;53.60;;;;;;5071400;28;20571;-70
2021/11/22 12:42:36;;;;;;;6.50;1.83;;;27.60;53.60;;;;;;5066368;28;20028;-70
2021/11/22 12:45:45;;;;;;;4.75;1.35;;;27.50;53.40;;;;;;5067569;28;20020;-69
2021/11/22 12:49:07;;;;;;;2.90;1.00;;;27.50;53.40;;;;;;5068584;28;20033;-69
2021/11/22 12:52:13;;;;;;;7.18;1.40;;;27.50;53.40;;;;;;5068748;28;20392;-69
2021/11/22 12:54:58;;;;;;;5.38;1.27;;;27.50;53.30;;;;;;5067630;28;20040;-70
2021/11/22 12:58:04;;;;;;;4.80;1.48;;;27.50;53.00;;;;;;5068017;28;20031;-71
2021/11/22 13:00:53;;;;;;;2.88;1.10;;;27.60;52.90;;;;;;5066524;28;20060;-69
2021/11/22 13:03:59;;;;;;;5.70;1.10;;;27.60;52.60;;;;;;5067584;28;20728;-69
2021/11/22 13:07:14;;;;;;;7.43;1.45;;;27.60;51.90;;;;;;5068738;28;20784;-71